createdAt,value
2022-12-11T00:01:23.695Z,97575.59
2022-12-11T00:03:52.845Z,97577.91
2022-12-11T00:06:24.843Z,97574.25
2022-12-11T00:08:56.002Z,97568.88
2022-12-11T00:11:26.156Z,97577.41
2022-12-11T00:13:57.033Z,97569.69
2022-12-11T00:16:27.411Z,97580.47
2022-12-11T00:18:56.913Z,97582.66
2022-12-11T00:21:27.086Z,97581.44
2022-12-11T00:23:56.048Z,97577.03
2022-12-11T00:26:25.535Z,97577.03
2022-12-11T00:28:57.789Z,97576.09
2022-12-11T00:31:27.110Z,97577.72
2022-12-11T00:33:56.999Z,97580.28
2022-12-11T00:36:28.367Z,97585.41
2022-12-11T00:38:56.880Z,97573.28
2022-12-11T00:41:26.846Z,97575.72
2022-12-11T00:43:57.689Z,97569.53
2022-12-11T00:46:27.173Z,97571.41
2022-12-11T00:48:55.570Z,97561.03
2022-12-11T00:51:24.403Z,97564.41
2022-12-11T00:53:53.358Z,97557.41
2022-12-11T00:56:25.293Z,97561.47
2022-12-11T00:58:55.815Z,97565.78
2022-12-11T01:01:26.352Z,97559.84
2022-12-11T01:03:55.424Z,97557.97
2022-12-11T01:06:26.702Z,97553.41
2022-12-11T01:09:10.151Z,97557.47
2022-12-11T01:11:39.645Z,97553.16
2022-12-11T01:14:11.701Z,97550.34
2022-12-11T01:16:40.363Z,97555.34
2022-12-11T01:19:09.294Z,97555.34
2022-12-11T01:21:37.774Z,97562.91
2022-12-11T01:24:08.714Z,97559.16
2022-12-11T01:26:38.681Z,97560.78
2022-12-11T01:29:10.412Z,97566.16
2022-12-11T01:31:40.727Z,97555.91
2022-12-11T01:34:09.546Z,97561.84
2022-12-11T01:36:39.683Z,97566.72
2022-12-11T01:39:10.172Z,97559.97
2022-12-11T01:41:39.803Z,97562.63
2022-12-11T01:45:09.780Z,97564.28
2022-12-11T01:47:39.997Z,97561.72
2022-12-11T01:50:10.889Z,97570.78
2022-12-11T01:52:40.992Z,97568.91
2022-12-11T01:55:12.105Z,97576.38
2022-12-11T01:57:45.382Z,97582.16
2022-12-11T02:00:18.591Z,97577.03
2022-12-11T02:02:48.338Z,97574.31
2022-12-11T02:05:17.372Z,97573.28
2022-12-11T02:07:51.743Z,97572.47
2022-12-11T02:10:21.164Z,97576.09
2022-12-11T02:13:00.115Z,97576.78
2022-12-11T02:15:40.270Z,97577.34
2022-12-11T02:18:21.389Z,97574.88
2022-12-11T02:20:58.567Z,97579.91
2022-12-11T02:24:09.272Z,97589.91
2022-12-11T02:27:20.921Z,97584.78
2022-12-11T02:30:00.236Z,97582.34
2022-12-11T02:32:38.182Z,97582.47
2022-12-11T02:35:15.469Z,97591.53
2022-12-11T02:37:50.398Z,97595.59
2022-12-11T02:40:26.091Z,97590.22
2022-12-11T02:42:58.939Z,97584.16
2022-12-11T02:45:32.700Z,97578.09
2022-12-11T02:48:06.839Z,97578.75
2022-12-11T02:50:44.150Z,97572.97
2022-12-11T02:53:17.854Z,97566.56
2022-12-11T02:55:53.464Z,97569.00
2022-12-11T02:58:28.229Z,97566.31
2022-12-11T03:00:59.340Z,97564.69
2022-12-11T03:03:31.108Z,97565.63
2022-12-11T03:06:00.503Z,97563.06
2022-12-11T03:08:30.148Z,97570.88
2022-12-11T03:11:00.408Z,97567.13
2022-12-11T03:13:29.963Z,97560.13
2022-12-11T03:16:15.347Z,97556.59
2022-12-11T03:18:56.729Z,97559.06
2022-12-11T03:21:38.038Z,97557.97
2022-12-11T03:24:15.916Z,97559.59
2022-12-11T03:26:56.660Z,97559.34
2022-12-11T03:29:33.680Z,97562.84
2022-12-11T03:32:11.621Z,97562.59
2022-12-11T03:34:47.050Z,97559.09
2022-12-11T03:37:18.249Z,97556.13
2022-12-11T03:39:55.054Z,97560.28
2022-12-11T03:42:28.484Z,97563.66
2022-12-11T03:45:00.545Z,97555.16
2022-12-11T03:47:34.107Z,97552.31
2022-12-11T03:50:07.240Z,97560.72
2022-12-11T03:52:44.080Z,97553.84
2022-12-11T03:55:18.742Z,97555.34
2022-12-11T03:57:48.619Z,97557.63
2022-12-11T04:00:20.724Z,97562.66
2022-12-11T04:03:11.172Z,97560.47
2022-12-11T04:05:43.768Z,97561.53
2022-12-11T04:08:12.716Z,97555.06
2022-12-11T04:10:42.722Z,97558.34
2022-12-11T04:13:12.546Z,97551.56
2022-12-11T04:15:41.706Z,97547.81
2022-12-11T04:18:30.134Z,97546.06
2022-12-11T04:21:16.823Z,97537.53
2022-12-11T04:24:04.597Z,97539.97
2022-12-11T04:26:34.019Z,97541.59
2022-12-11T04:29:03.408Z,97546.72
2022-12-11T04:31:33.042Z,97544.81
2022-12-11T04:34:04.485Z,97546.47
2022-12-11T04:36:34.578Z,97545.38
2022-12-11T04:39:03.400Z,97545.38
2022-12-11T04:41:33.189Z,97535.25
2022-12-11T04:44:03.500Z,97537.81
2022-12-11T04:46:33.369Z,97537.81
2022-12-11T04:49:04.319Z,97539.31
2022-12-11T04:51:34.403Z,97529.75
2022-12-11T04:54:03.733Z,97530.25
2022-12-11T04:56:33.180Z,97515.69
2022-12-11T04:59:02.776Z,97512.84
2022-12-11T05:01:32.999Z,97508.13
2022-12-11T05:04:03.154Z,97515.69
2022-12-11T05:06:33.716Z,97511.09
2022-12-11T05:09:03.708Z,97503.13
2022-12-11T05:11:34.115Z,97511.53
2022-12-11T05:14:04.565Z,97504.63
2022-12-11T05:16:33.659Z,97501.09
2022-12-11T05:19:04.912Z,97507.88
2022-12-11T05:21:35.506Z,97493.84
2022-12-11T05:24:08.182Z,97504.09
2022-12-11T05:26:38.090Z,97514.38
2022-12-11T05:29:10.633Z,97502.19
2022-12-11T05:31:40.345Z,97507.34
2022-12-11T05:34:11.970Z,97506.00
2022-12-11T05:36:42.401Z,97502.47
2022-12-11T05:39:14.134Z,97503.16
2022-12-11T05:41:44.846Z,97500.59
2022-12-11T05:44:14.789Z,97500.34
2022-12-11T05:46:44.402Z,97499.63
2022-12-11T05:49:17.520Z,97497.75
2022-12-11T05:51:50.594Z,97508.03
2022-12-11T05:54:20.224Z,97504.66
2022-12-11T05:56:53.293Z,97514.91
2022-12-11T05:59:24.371Z,97518.31
2022-12-11T06:01:54.970Z,97511.28
2022-12-11T06:04:26.926Z,97520.59
2022-12-11T06:06:57.391Z,97524.09
2022-12-11T06:09:27.767Z,97525.06
2022-12-11T06:12:04.000Z,97518.97
2022-12-11T06:14:33.562Z,97512.78
2022-12-11T06:17:03.285Z,97505.19
2022-12-11T06:19:36.911Z,97497.22
2022-12-11T06:22:06.711Z,97499.78
2022-12-11T06:24:37.411Z,97504.00
2022-12-11T06:27:10.275Z,97501.44
2022-12-11T06:29:40.768Z,97501.44
2022-12-11T06:32:10.469Z,97501.28
2022-12-11T06:34:42.759Z,97503.03
2022-12-11T06:37:11.981Z,97496.94
2022-12-11T06:39:41.980Z,97485.59
2022-12-11T06:42:13.541Z,97488.03
2022-12-11T06:44:43.090Z,97485.59
2022-12-11T06:47:12.590Z,97496.69
2022-12-11T06:49:43.160Z,97488.31
2022-12-11T06:52:18.203Z,97497.66
2022-12-11T06:54:48.957Z,97487.09
2022-12-11T06:57:19.385Z,97493.19
2022-12-11T06:59:49.088Z,97495.47
2022-12-11T07:02:22.078Z,97498.97
2022-12-11T07:04:55.339Z,97498.97
2022-12-11T07:07:25.141Z,97502.38
2022-12-11T07:09:54.351Z,97506.56
2022-12-11T07:12:23.543Z,97515.09
2022-12-11T07:14:53.648Z,97509.94
2022-12-11T07:17:23.576Z,97510.06
2022-12-11T07:19:55.128Z,97502.25
2022-12-11T07:22:24.034Z,97498.97
2022-12-11T07:24:53.142Z,97505.63
2022-12-11T07:27:23.226Z,97496.00
2022-12-11T07:29:52.700Z,97502.25
2022-12-11T07:32:21.959Z,97500.88
2022-12-11T07:34:52.133Z,97506.03
2022-12-11T07:37:23.625Z,97507.66
2022-12-11T07:39:52.502Z,97515.09
2022-12-11T07:42:22.500Z,97514.94
2022-12-11T07:44:52.097Z,97510.63
2022-12-11T07:47:22.198Z,97515.34
2022-12-11T07:49:51.615Z,97517.81
2022-12-11T07:52:21.416Z,97513.47
2022-12-11T07:54:51.029Z,97522.94
2022-12-11T07:57:21.303Z,97510.78
2022-12-11T07:59:51.572Z,97512.53
2022-12-11T08:02:20.739Z,97513.34
2022-12-11T08:04:50.694Z,97507.38
2022-12-11T08:07:21.100Z,97498.75
2022-12-11T08:09:50.695Z,97504.41
2022-12-11T08:12:19.446Z,97501.03
2022-12-11T08:14:47.942Z,97509.41
2022-12-11T08:17:17.785Z,97509.28
2022-12-11T08:19:47.295Z,97502.50
2022-12-11T08:22:17.267Z,97500.63
2022-12-11T08:24:49.653Z,97497.78
2022-12-11T08:27:18.655Z,97503.88
2022-12-11T08:29:48.756Z,97502.13
2022-12-11T08:32:19.313Z,97510.75
2022-12-11T08:34:48.768Z,97511.31
2022-12-11T08:37:18.227Z,97514.69
2022-12-11T08:39:48.658Z,97513.59
2022-12-11T08:42:17.055Z,97508.47
2022-12-11T08:44:47.102Z,97510.91
2022-12-11T08:47:16.545Z,97521.03
2022-12-11T08:49:46.576Z,97512.53
2022-12-11T08:52:19.810Z,97514.16
2022-12-11T08:54:50.716Z,97512.41
2022-12-11T08:57:22.454Z,97509.44
2022-12-11T08:59:51.618Z,97513.88
2022-12-11T09:02:22.226Z,97514.03
2022-12-11T09:04:51.930Z,97509.69
2022-12-11T09:07:20.985Z,97503.59
2022-12-11T09:09:51.647Z,97493.47
2022-12-11T09:12:21.621Z,97504.41
2022-12-11T09:14:51.290Z,97506.03
2022-12-11T09:17:20.228Z,97507.66
2022-12-11T09:19:49.703Z,97497.66
2022-12-11T09:22:19.263Z,97500.78
2022-12-11T09:24:50.646Z,97503.06
2022-12-11T09:27:21.396Z,97500.88
2022-12-11T09:29:50.416Z,97490.75
2022-12-11T09:32:19.278Z,97494.94
2022-12-11T09:34:51.913Z,97502.53
2022-12-11T09:37:20.642Z,97496.97
2022-12-11T09:39:52.260Z,97491.84
2022-12-11T09:42:34.469Z,97489.25
2022-12-11T09:45:07.180Z,97491.56
2022-12-11T09:47:41.195Z,97486.25
2022-12-11T09:50:19.176Z,97492.22
2022-12-11T09:53:05.859Z,97481.00
2022-12-11T09:55:50.033Z,97477.31
2022-12-11T09:58:29.292Z,97468.69
2022-12-11T10:01:07.674Z,97470.97
2022-12-11T10:04:22.141Z,97470.56
2022-12-11T10:07:02.962Z,97467.97
2022-12-11T10:09:44.619Z,97466.22
2022-12-11T10:12:40.096Z,97473.78
2022-12-11T10:15:27.308Z,97472.56
2022-12-11T10:18:04.635Z,97464.84
2022-12-11T10:20:39.485Z,97460.25
2022-12-11T10:23:10.699Z,97454.00
2022-12-11T10:25:46.440Z,97458.03
2022-12-11T10:28:19.068Z,97454.53
2022-12-11T10:31:02.724Z,97455.22
2022-12-11T10:33:46.756Z,97447.22
2022-12-11T10:36:22.501Z,97444.47
2022-12-11T10:38:51.792Z,97437.47
2022-12-11T10:41:25.422Z,97430.09
2022-12-11T10:43:56.449Z,97431.75
2022-12-11T10:46:28.258Z,97431.44
2022-12-11T10:49:00.528Z,97422.50
2022-12-11T10:51:38.791Z,97418.97
2022-12-11T10:54:19.025Z,97412.88
2022-12-11T10:56:51.641Z,97406.47
2022-12-11T10:59:30.131Z,97405.25
2022-12-11T11:02:00.567Z,97399.97
2022-12-11T11:04:33.811Z,97399.69
2022-12-11T11:07:15.572Z,97399.38
2022-12-11T11:09:45.702Z,97398.56
2022-12-11T11:12:26.319Z,97404.25
2022-12-11T11:15:04.650Z,97407.63
2022-12-11T11:17:52.739Z,97392.19
2022-12-11T11:20:29.622Z,97392.84
2022-12-11T11:23:01.940Z,97390.28
2022-12-11T11:25:34.122Z,97386.59
2022-12-11T11:28:07.827Z,97389.69
2022-12-11T11:30:41.886Z,97381.97
2022-12-11T11:33:19.407Z,97376.69
2022-12-11T11:35:55.927Z,97380.44
2022-12-11T11:38:30.612Z,97376.47
2022-12-11T11:41:15.103Z,97377.28
2022-12-11T11:43:50.092Z,97369.28
2022-12-11T11:46:27.502Z,97362.88
2022-12-11T11:49:15.406Z,97361.59
2022-12-11T11:51:53.588Z,97359.53
2022-12-11T11:54:35.143Z,97359.78
2022-12-11T11:57:17.293Z,97357.88
2022-12-11T11:59:52.197Z,97356.91
2022-12-11T12:02:23.270Z,97357.56
2022-12-11T12:04:53.329Z,97365.97
2022-12-11T12:07:42.259Z,97365.16
2022-12-11T12:10:22.835Z,97363.66
2022-12-11T12:13:03.167Z,97368.16
2022-12-11T12:15:43.215Z,97364.66
2022-12-11T12:18:35.954Z,97363.84
2022-12-11T12:21:21.827Z,97363.41
2022-12-11T12:24:11.657Z,97369.19
2022-12-11T12:26:49.116Z,97362.41
2022-12-11T12:29:40.830Z,97369.19
2022-12-11T12:32:22.477Z,97366.31
2022-12-11T12:35:11.452Z,97364.41
2022-12-11T12:37:57.396Z,97364.13
2022-12-11T12:40:50.187Z,97362.19
2022-12-11T12:43:39.526Z,97357.34
2022-12-11T12:46:23.352Z,97365.88
2022-12-11T12:48:58.164Z,97363.63
2022-12-11T12:51:30.213Z,97362.63
2022-12-11T12:54:06.684Z,97362.50
2022-12-11T12:56:43.695Z,97359.91
2022-12-11T12:59:23.688Z,97363.31
2022-12-11T13:01:57.353Z,97362.84
2022-12-11T13:04:59.443Z,97362.56
2022-12-11T13:07:32.915Z,97355.63
2022-12-11T13:10:09.195Z,97356.31
2022-12-11T13:12:46.781Z,97355.50
2022-12-11T13:15:39.101Z,97357.56
2022-12-11T13:18:36.125Z,97360.28
2022-12-11T13:21:32.427Z,97362.56
2022-12-11T13:24:29.738Z,97363.88
2022-12-11T13:27:11.137Z,97350.84
2022-12-11T13:29:43.490Z,97354.06
2022-12-11T13:32:25.872Z,97353.81
2022-12-11T13:34:59.339Z,97358.78
2022-12-11T13:37:34.870Z,97361.66
2022-12-11T13:40:12.952Z,97364.88
2022-12-11T13:42:51.728Z,97362.47
2022-12-11T13:45:30.043Z,97357.97
2022-12-11T13:48:01.185Z,97365.72
2022-12-11T13:50:36.063Z,97367.47
2022-12-11T13:53:06.181Z,97368.44
2022-12-11T13:55:37.507Z,97372.50
2022-12-11T13:58:18.403Z,97374.25
2022-12-11T14:01:08.811Z,97369.75
2022-12-11T14:03:41.013Z,97376.84
2022-12-11T14:06:18.273Z,97384.44
2022-12-11T14:08:54.697Z,97388.59
2022-12-11T14:11:29.481Z,97380.06
2022-12-11T14:14:02.312Z,97386.19
2022-12-11T14:16:33.210Z,97384.72
2022-12-11T14:19:08.575Z,97389.88
2022-12-11T14:21:38.132Z,97382.28
2022-12-11T14:24:13.707Z,97385.97
2022-12-11T14:26:53.064Z,97388.69
2022-12-11T14:29:31.424Z,97384.66
2022-12-11T14:32:07.483Z,97387.06
2022-12-11T14:34:44.423Z,97387.22
2022-12-11T14:37:17.858Z,97392.09
2022-12-11T14:39:51.850Z,97389.38
2022-12-11T14:42:26.073Z,97386.94
2022-12-11T14:45:01.899Z,97397.88
2022-12-11T14:47:40.158Z,97403.72
2022-12-11T14:50:19.152Z,97391.78
2022-12-11T14:52:54.431Z,97393.41
2022-12-11T14:55:28.017Z,97398.69
2022-12-11T14:58:02.879Z,97398.06
2022-12-11T15:00:36.325Z,97403.34
2022-12-11T15:03:09.108Z,97402.38
2022-12-11T15:05:51.751Z,97401.22
2022-12-11T15:08:27.123Z,97398.91
2022-12-11T15:11:09.869Z,97395.69
2022-12-11T15:13:54.095Z,97402.47
2022-12-11T15:16:26.523Z,97399.72
2022-12-11T15:18:58.900Z,97397.31
2022-12-11T15:21:32.730Z,97397.31
2022-12-11T15:24:07.133Z,97396.34
2022-12-11T15:26:40.092Z,97398.13
2022-12-11T15:29:35.012Z,97404.25
2022-12-11T15:32:19.838Z,97398.28
2022-12-11T15:34:52.587Z,97397.31
2022-12-11T15:37:25.750Z,97409.22
2022-12-11T15:39:57.649Z,97408.44
2022-12-11T15:42:31.448Z,97403.28
2022-12-11T15:45:03.354Z,97410.34
2022-12-11T15:47:34.409Z,97406.94
2022-12-11T15:50:18.380Z,97407.94
2022-12-11T15:52:47.953Z,97407.94
2022-12-11T15:55:18.335Z,97413.09
2022-12-11T15:57:52.272Z,97417.41
2022-12-11T16:00:26.366Z,97418.22
2022-12-11T16:02:55.865Z,97413.88
2022-12-11T16:05:25.989Z,97411.75
2022-12-11T16:07:59.656Z,97414.31
2022-12-11T16:10:29.663Z,97417.19
2022-12-11T16:12:59.819Z,97417.34
2022-12-11T16:15:31.058Z,97422.66
2022-12-11T16:18:05.765Z,97418.28
2022-12-11T16:20:36.230Z,97424.25
2022-12-11T16:23:06.691Z,97419.91
2022-12-11T16:25:38.116Z,97424.25
2022-12-11T16:28:07.914Z,97417.34
2022-12-11T16:30:40.823Z,97409.59
2022-12-11T16:33:12.845Z,97405.28
2022-12-11T16:35:43.314Z,97413.94
2022-12-11T16:38:13.611Z,97417.75
2022-12-11T16:40:43.710Z,97414.53
2022-12-11T16:43:13.845Z,97417.13
2022-12-11T16:45:45.609Z,97415.94
2022-12-11T16:48:15.654Z,97413.63
2022-12-11T16:50:53.469Z,97415.69
2022-12-11T16:53:22.792Z,97418.56
2022-12-11T16:55:52.128Z,97423.06
2022-12-11T16:58:21.488Z,97418.56
2022-12-11T17:00:52.893Z,97409.25
2022-12-11T17:03:22.930Z,97410.78
2022-12-11T17:05:51.373Z,97417.69
2022-12-11T17:08:21.094Z,97418.50
2022-12-11T17:10:49.643Z,97411.41
2022-12-11T17:13:19.386Z,97407.22
2022-12-11T17:15:48.502Z,97410.09
2022-12-11T17:18:19.324Z,97404.94
2022-12-11T17:20:49.659Z,97396.56
2022-12-11T17:23:19.135Z,97395.75
2022-12-11T17:25:49.606Z,97398.75
2022-12-11T17:28:18.244Z,97394.56
2022-12-11T17:30:49.357Z,97398.75
2022-12-11T17:33:19.549Z,97405.53
2022-12-11T17:35:49.888Z,97404.56
2022-12-11T17:38:19.363Z,97398.75
2022-12-11T17:40:48.927Z,97401.47
2022-12-11T17:43:18.090Z,97400.09
2022-12-11T17:45:52.247Z,97400.09
2022-12-11T17:48:23.697Z,97393.59
2022-12-11T17:50:54.497Z,97397.66
2022-12-11T17:53:24.928Z,97400.38
2022-12-11T17:55:54.613Z,97395.88
2022-12-11T17:58:24.718Z,97402.00
2022-12-11T18:00:57.626Z,97401.31
2022-12-11T18:03:29.868Z,97404.56
2022-12-11T18:06:05.851Z,97407.81
2022-12-11T18:08:35.565Z,97403.59
2022-12-11T18:11:08.677Z,97402.94
2022-12-11T18:13:38.241Z,97408.75
2022-12-11T18:16:12.845Z,97405.09
2022-12-11T18:18:43.399Z,97405.41
2022-12-11T18:21:15.191Z,97409.44
2022-12-11T18:23:44.619Z,97408.50
2022-12-11T18:26:14.595Z,97407.66
2022-12-11T18:28:43.723Z,97407.50
2022-12-11T18:31:13.631Z,97404.13
2022-12-11T18:33:45.370Z,97400.09
2022-12-11T18:36:16.796Z,97410.38
2022-12-11T18:38:47.127Z,97402.66
2022-12-11T18:41:18.509Z,97396.03
2022-12-11T18:43:47.810Z,97399.56
2022-12-11T18:46:19.241Z,97406.34
2022-12-11T18:48:50.812Z,97402.28
2022-12-11T18:51:24.074Z,97407.72
2022-12-11T18:53:53.844Z,97397.41
2022-12-11T18:56:23.768Z,97400.66
2022-12-11T18:58:53.358Z,97404.19
2022-12-11T19:01:25.781Z,97405.00
2022-12-11T19:04:04.188Z,97406.91
2022-12-11T19:06:36.546Z,97412.84
2022-12-11T19:09:09.002Z,97405.28
2022-12-11T19:11:41.679Z,97413.03
2022-12-11T19:14:11.593Z,97418.16
2022-12-11T19:16:45.442Z,97415.72
2022-12-11T19:19:18.008Z,97413.84
2022-12-11T19:21:49.090Z,97411.25
2022-12-11T19:24:22.518Z,97400.97
2022-12-11T19:26:51.942Z,97405.28
2022-12-11T19:29:25.996Z,97407.34
2022-12-11T19:31:55.892Z,97402.50
2022-12-11T19:34:26.989Z,97401.03
2022-12-11T19:36:56.344Z,97410.50
2022-12-11T19:39:25.191Z,97407.25
2022-12-11T19:41:54.700Z,97407.53
2022-12-11T19:44:25.022Z,97404.72
2022-12-11T19:46:53.675Z,97403.03
2022-12-11T19:49:23.360Z,97404.91
2022-12-11T19:51:53.783Z,97408.00
2022-12-11T19:54:24.686Z,97406.38
2022-12-11T19:56:54.886Z,97402.22
2022-12-11T19:59:23.708Z,97416.97
2022-12-11T20:01:52.755Z,97412.38
2022-12-11T20:04:22.629Z,97418.22
2022-12-11T20:06:53.449Z,97418.06
2022-12-11T20:09:24.440Z,97415.47
2022-12-11T20:11:53.477Z,97417.69
2022-12-11T20:14:27.103Z,97423.63
2022-12-11T20:17:15.042Z,97420.09
2022-12-11T20:19:44.705Z,97425.78
2022-12-11T20:22:15.192Z,97419.69
2022-12-11T20:24:45.170Z,97432.25
2022-12-11T20:27:14.861Z,97421.44
2022-12-11T20:29:44.451Z,97426.31
2022-12-11T20:32:14.309Z,97433.75
2022-12-11T20:34:43.729Z,97431.97
2022-12-11T20:37:13.996Z,97427.94
2022-12-11T20:39:43.396Z,97435.38
2022-12-11T20:42:13.185Z,97428.59
2022-12-11T20:44:47.360Z,97427.94
2022-12-11T20:47:19.943Z,97428.75
2022-12-11T20:49:49.661Z,97424.13
2022-12-11T20:52:20.725Z,97422.78
2022-12-11T20:54:49.832Z,97421.16
2022-12-11T20:57:19.969Z,97420.34
2022-12-11T20:59:49.620Z,97421.03
2022-12-11T21:02:18.741Z,97422.78
2022-12-11T21:04:48.249Z,97424.38
2022-12-11T21:07:19.776Z,97430.34
2022-12-11T21:09:49.784Z,97432.09
2022-12-11T21:12:19.238Z,97429.53
2022-12-11T21:14:48.768Z,97424.13
2022-12-11T21:17:18.208Z,97429.28
2022-12-11T21:19:48.370Z,97424.66
2022-12-11T21:22:19.412Z,97424.78
2022-12-11T21:24:47.970Z,97428.06
2022-12-11T21:27:16.432Z,97434.97
2022-12-11T21:29:45.430Z,97429.16
2022-12-11T21:32:14.953Z,97424.03
2022-12-11T21:34:43.989Z,97424.03
2022-12-11T21:37:12.905Z,97429.28
2022-12-11T21:39:43.265Z,97426.06
2022-12-11T21:42:12.793Z,97434.31
2022-12-11T21:45:58.882Z,97433.22
2022-12-11T21:47:31.861Z,97429.53
2022-12-11T21:50:01.457Z,97435.22
2022-12-11T21:52:32.117Z,97434.25
2022-12-11T21:55:03.533Z,97438.47
2022-12-11T21:57:32.612Z,97436.03
2022-12-11T22:00:02.041Z,97439.56
2022-12-11T22:02:33.128Z,97436.31
2022-12-11T22:05:04.002Z,97437.41
2022-12-11T22:07:33.503Z,97434.69
2022-12-11T22:10:04.695Z,97439.81
2022-12-11T22:12:33.758Z,97442.41
2022-12-11T22:15:02.872Z,97443.09
2022-12-11T22:17:33.114Z,97440.50
2022-12-11T22:20:02.110Z,97447.41
2022-12-11T22:22:30.986Z,97451.09
2022-12-11T22:25:00.444Z,97448.81
2022-12-11T22:27:31.383Z,97453.41
2022-12-11T22:30:00.395Z,97454.38
2022-12-11T22:32:29.310Z,97453.13
2022-12-11T22:34:59.224Z,97454.25
2022-12-11T22:37:29.089Z,97448.81
2022-12-11T22:39:59.447Z,97456.09
2022-12-11T22:42:30.268Z,97459.75
2022-12-11T22:44:59.984Z,97461.50
2022-12-11T22:47:28.956Z,97465.56
2022-12-11T22:49:58.360Z,97460.16
2022-12-11T22:52:27.842Z,97465.97
2022-12-11T22:54:57.632Z,97459.88
2022-12-11T22:57:26.072Z,97455.66
2022-12-11T22:59:58.058Z,97461.75
2022-12-11T23:02:28.206Z,97460.94
2022-12-11T23:04:57.606Z,97455.66
2022-12-11T23:07:28.388Z,97462.28
2022-12-11T23:09:57.533Z,97461.47
2022-12-11T23:12:26.967Z,97464.72
2022-12-11T23:14:57.340Z,97465.84
2022-12-11T23:17:26.836Z,97464.03
2022-12-11T23:19:56.842Z,97466.63
2022-12-11T23:22:27.367Z,97462.28
2022-12-11T23:24:57.377Z,97470.28
2022-12-11T23:27:26.830Z,97473.97
2022-12-11T23:29:57.098Z,97475.06
2022-12-11T23:32:27.138Z,97478.41
2022-12-11T23:34:56.277Z,97467.88
2022-12-11T23:37:25.689Z,97475.59
2022-12-11T23:39:54.513Z,97468.53
2022-12-11T23:42:24.623Z,97465.97
2022-12-11T23:44:53.063Z,97465.31
2022-12-11T23:47:25.006Z,97470.44
2022-12-11T23:49:55.034Z,97473.28
2022-12-11T23:52:26.647Z,97468.94
2022-12-11T23:54:55.675Z,97476.81
2022-12-11T23:57:24.137Z,97467.19
2022-12-11T23:59:54.865Z,97480.75
